sensor_id;sensor_type;location;lat;lon;timestamp;P1;durP1;ratioP1;P2;durP2;ratioP2
42988;SDS011;28622;43.716;20.668;2023-04-03T00:02:17;6.13;;;2.38;;
42988;SDS011;28622;43.716;20.668;2023-04-03T00:04:42;4.45;;;2.63;;
42988;SDS011;28622;43.716;20.668;2023-04-03T00:07:08;10.90;;;3.90;;
42988;SDS011;28622;43.716;20.668;2023-04-03T00:09:34;6.53;;;3.03;;
42988;SDS011;28622;43.716;20.668;2023-04-03T00:12:00;5.22;;;2.55;;
42988;SDS011;28622;43.716;20.668;2023-04-03T00:14:25;5.82;;;2.78;;
42988;SDS011;28622;43.716;20.668;2023-04-03T00:16:52;5.50;;;2.90;;
42988;SDS011;28622;43.716;20.668;2023-04-03T00:19:18;6.47;;;2.42;;
42988;SDS011;28622;43.716;20.668;2023-04-03T00:21:44;5.40;;;3.10;;
42988;SDS011;28622;43.716;20.668;2023-04-03T00:24:10;6.22;;;2.83;;
42988;SDS011;28622;43.716;20.668;2023-04-03T00:26:36;7.65;;;2.83;;
42988;SDS011;28622;43.716;20.668;2023-04-03T00:29:01;2.95;;;2.05;;
42988;SDS011;28622;43.716;20.668;2023-04-03T00:31:27;4.97;;;2.40;;
42988;SDS011;28622;43.716;20.668;2023-04-03T00:33:53;5.53;;;2.35;;
42988;SDS011;28622;43.716;20.668;2023-04-03T00:36:19;6.63;;;2.92;;
42988;SDS011;28622;43.716;20.668;2023-04-03T00:38:45;5.90;;;2.38;;
42988;SDS011;28622;43.716;20.668;2023-04-03T00:41:11;7.22;;;3.92;;
42988;SDS011;28622;43.716;20.668;2023-04-03T00:43:36;8.50;;;3.80;;
42988;SDS011;28622;43.716;20.668;2023-04-03T00:46:03;9.88;;;4.63;;
42988;SDS011;28622;43.716;20.668;2023-04-03T00:48:30;9.10;;;4.38;;
42988;SDS011;28622;43.716;20.668;2023-04-03T00:50:59;6.45;;;3.25;;
42988;SDS011;28622;43.716;20.668;2023-04-03T00:53:27;7.03;;;2.67;;
42988;SDS011;28622;43.716;20.668;2023-04-03T00:55:57;4.95;;;2.22;;
42988;SDS011;28622;43.716;20.668;2023-04-03T00:58:34;5.38;;;2.40;;
42988;SDS011;28622;43.716;20.668;2023-04-03T01:01:22;5.38;;;2.40;;
42988;SDS011;28622;43.716;20.668;2023-04-03T01:03:51;5.38;;;2.85;;
42988;SDS011;28622;43.716;20.668;2023-04-03T01:06:17;8.50;;;3.78;;
42988;SDS011;28622;43.716;20.668;2023-04-03T01:08:48;8.13;;;3.83;;
42988;SDS011;28622;43.716;20.668;2023-04-03T01:11:15;5.70;;;2.40;;
42988;SDS011;28622;43.716;20.668;2023-04-03T01:13:40;2.92;;;1.73;;
42988;SDS011;28622;43.716;20.668;2023-04-03T01:16:07;7.88;;;2.30;;
42988;SDS011;28622;43.716;20.668;2023-04-03T01:18:33;4.55;;;2.40;;
42988;SDS011;28622;43.716;20.668;2023-04-03T01:26:38;7.43;;;2.17;;
42988;SDS011;28622;43.716;20.668;2023-04-03T01:29:04;3.90;;;1.88;;
42988;SDS011;28622;43.716;20.668;2023-04-03T01:33:59;5.30;;;2.55;;
42988;SDS011;28622;43.716;20.668;2023-04-03T01:36:27;6.38;;;2.72;;
42988;SDS011;28622;43.716;20.668;2023-04-03T01:38:54;2.70;;;2.03;;
42988;SDS011;28622;43.716;20.668;2023-04-03T01:41:21;5.22;;;2.35;;
42988;SDS011;28622;43.716;20.668;2023-04-03T01:43:48;4.80;;;2.03;;
42988;SDS011;28622;43.716;20.668;2023-04-03T01:46:15;4.88;;;2.08;;
42988;SDS011;28622;43.716;20.668;2023-04-03T01:48:41;3.00;;;1.75;;
42988;SDS011;28622;43.716;20.668;2023-04-03T01:51:07;3.70;;;2.00;;
42988;SDS011;28622;43.716;20.668;2023-04-03T01:53:33;5.60;;;2.10;;
42988;SDS011;28622;43.716;20.668;2023-04-03T01:55:59;4.65;;;2.00;;
42988;SDS011;28622;43.716;20.668;2023-04-03T01:58:25;2.97;;;1.60;;
42988;SDS011;28622;43.716;20.668;2023-04-03T02:00:51;5.25;;;1.98;;
42988;SDS011;28622;43.716;20.668;2023-04-03T02:03:17;3.28;;;1.52;;
42988;SDS011;28622;43.716;20.668;2023-04-03T02:05:44;4.18;;;1.88;;
42988;SDS011;28622;43.716;20.668;2023-04-03T02:08:10;3.55;;;2.03;;
42988;SDS011;28622;43.716;20.668;2023-04-03T02:10:36;5.10;;;2.05;;
42988;SDS011;28622;43.716;20.668;2023-04-03T02:13:02;3.00;;;1.73;;
42988;SDS011;28622;43.716;20.668;2023-04-03T02:15:28;4.20;;;2.03;;
42988;SDS011;28622;43.716;20.668;2023-04-03T02:17:54;3.58;;;1.85;;
42988;SDS011;28622;43.716;20.668;2023-04-03T02:20:20;2.22;;;1.48;;
42988;SDS011;28622;43.716;20.668;2023-04-03T02:22:46;3.92;;;1.60;;
42988;SDS011;28622;43.716;20.668;2023-04-03T02:25:12;4.05;;;1.60;;
42988;SDS011;28622;43.716;20.668;2023-04-03T02:27:38;6.20;;;1.85;;
42988;SDS011;28622;43.716;20.668;2023-04-03T02:30:04;2.42;;;1.55;;
42988;SDS011;28622;43.716;20.668;2023-04-03T02:32:30;1.75;;;1.10;;
42988;SDS011;28622;43.716;20.668;2023-04-03T02:34:56;2.95;;;1.55;;
42988;SDS011;28622;43.716;20.668;2023-04-03T02:37:22;3.35;;;1.73;;
42988;SDS011;28622;43.716;20.668;2023-04-03T02:39:48;2.90;;;1.52;;
42988;SDS011;28622;43.716;20.668;2023-04-03T02:42:14;2.63;;;1.90;;
42988;SDS011;28622;43.716;20.668;2023-04-03T02:44:40;4.18;;;2.20;;
42988;SDS011;28622;43.716;20.668;2023-04-03T02:47:05;4.30;;;2.08;;
42988;SDS011;28622;43.716;20.668;2023-04-03T02:49:31;4.03;;;2.22;;
42988;SDS011;28622;43.716;20.668;2023-04-03T02:51:57;6.15;;;3.38;;
42988;SDS011;28622;43.716;20.668;2023-04-03T02:54:22;5.20;;;1.90;;
42988;SDS011;28622;43.716;20.668;2023-04-03T02:56:52;4.13;;;1.77;;
42988;SDS011;28622;43.716;20.668;2023-04-03T02:59:18;7.22;;;2.47;;
42988;SDS011;28622;43.716;20.668;2023-04-03T03:01:44;3.10;;;1.77;;
42988;SDS011;28622;43.716;20.668;2023-04-03T03:04:09;27.00;;;9.95;;
42988;SDS011;28622;43.716;20.668;2023-04-03T03:06:35;24.50;;;11.52;;
42988;SDS011;28622;43.716;20.668;2023-04-03T03:09:01;20.33;;;8.43;;
42988;SDS011;28622;43.716;20.668;2023-04-03T03:11:28;13.48;;;5.22;;
42988;SDS011;28622;43.716;20.668;2023-04-03T03:13:54;3.97;;;2.13;;
42988;SDS011;28622;43.716;20.668;2023-04-03T03:16:20;5.15;;;2.25;;
42988;SDS011;28622;43.716;20.668;2023-04-03T03:18:46;4.57;;;2.47;;
42988;SDS011;28622;43.716;20.668;2023-04-03T03:21:12;2.85;;;1.40;;
42988;SDS011;28622;43.716;20.668;2023-04-03T03:23:38;4.72;;;2.30;;
42988;SDS011;28622;43.716;20.668;2023-04-03T03:26:05;2.90;;;1.75;;
42988;SDS011;28622;43.716;20.668;2023-04-03T03:28:33;3.70;;;2.15;;
42988;SDS011;28622;43.716;20.668;2023-04-03T03:30:59;4.95;;;2.28;;
42988;SDS011;28622;43.716;20.668;2023-04-03T03:33:25;5.10;;;2.63;;
42988;SDS011;28622;43.716;20.668;2023-04-03T03:35:52;8.63;;;3.85;;
42988;SDS011;28622;43.716;20.668;2023-04-03T03:38:19;3.63;;;2.50;;
42988;SDS011;28622;43.716;20.668;2023-04-03T03:40:46;4.55;;;2.50;;
42988;SDS011;28622;43.716;20.668;2023-04-03T03:43:13;9.10;;;4.32;;
42988;SDS011;28622;43.716;20.668;2023-04-03T03:45:39;7.88;;;4.03;;
42988;SDS011;28622;43.716;20.668;2023-04-03T03:48:05;6.93;;;4.40;;
42988;SDS011;28622;43.716;20.668;2023-04-03T03:50:31;6.65;;;4.35;;
42988;SDS011;28622;43.716;20.668;2023-04-03T03:52:57;7.80;;;3.78;;
42988;SDS011;28622;43.716;20.668;2023-04-03T03:55:23;6.18;;;3.33;;
42988;SDS011;28622;43.716;20.668;2023-04-03T03:57:48;8.68;;;3.75;;
42988;SDS011;28622;43.716;20.668;2023-04-03T04:00:14;6.68;;;3.70;;
42988;SDS011;28622;43.716;20.668;2023-04-03T04:02:40;5.50;;;2.85;;
42988;SDS011;28622;43.716;20.668;2023-04-03T04:05:06;5.80;;;3.25;;
42988;SDS011;28622;43.716;20.668;2023-04-03T04:07:32;7.50;;;3.75;;
42988;SDS011;28622;43.716;20.668;2023-04-03T04:09:58;7.35;;;4.20;;
42988;SDS011;28622;43.716;20.668;2023-04-03T04:12:23;7.38;;;4.68;;
42988;SDS011;28622;43.716;20.668;2023-04-03T04:14:49;7.32;;;3.85;;
42988;SDS011;28622;43.716;20.668;2023-04-03T04:17:15;8.10;;;4.57;;
42988;SDS011;28622;43.716;20.668;2023-04-03T04:19:41;8.50;;;3.35;;
42988;SDS011;28622;43.716;20.668;2023-04-03T04:22:06;6.35;;;3.45;;
42988;SDS011;28622;43.716;20.668;2023-04-03T04:24:32;7.82;;;4.00;;
42988;SDS011;28622;43.716;20.668;2023-04-03T04:26:58;5.40;;;3.95;;
42988;SDS011;28622;43.716;20.668;2023-04-03T04:29:24;7.97;;;3.95;;
42988;SDS011;28622;43.716;20.668;2023-04-03T04:31:50;5.82;;;3.50;;
42988;SDS011;28622;43.716;20.668;2023-04-03T04:34:15;5.25;;;3.80;;
42988;SDS011;28622;43.716;20.668;2023-04-03T04:36:41;4.78;;;3.03;;
42988;SDS011;28622;43.716;20.668;2023-04-03T04:39:07;6.13;;;3.33;;
42988;SDS011;28622;43.716;20.668;2023-04-03T04:41:33;6.60;;;3.45;;
42988;SDS011;28622;43.716;20.668;2023-04-03T04:43:59;7.93;;;3.63;;
42988;SDS011;28622;43.716;20.668;2023-04-03T04:46:25;6.88;;;3.42;;
42988;SDS011;28622;43.716;20.668;2023-04-03T04:48:51;5.03;;;2.80;;
42988;SDS011;28622;43.716;20.668;2023-04-03T04:51:17;5.70;;;3.30;;
42988;SDS011;28622;43.716;20.668;2023-04-03T04:53:43;8.60;;;3.72;;
42988;SDS011;28622;43.716;20.668;2023-04-03T04:56:09;7.70;;;4.60;;
42988;SDS011;28622;43.716;20.668;2023-04-03T04:58:35;10.55;;;4.65;;
42988;SDS011;28622;43.716;20.668;2023-04-03T05:01:02;9.73;;;4.07;;
42988;SDS011;28622;43.716;20.668;2023-04-03T05:03:29;7.63;;;3.83;;
42988;SDS011;28622;43.716;20.668;2023-04-03T05:05:55;6.93;;;3.53;;
42988;SDS011;28622;43.716;20.668;2023-04-03T05:08:21;7.88;;;3.28;;
42988;SDS011;28622;43.716;20.668;2023-04-03T05:10:47;6.30;;;3.70;;
42988;SDS011;28622;43.716;20.668;2023-04-03T05:13:13;7.43;;;3.10;;
42988;SDS011;28622;43.716;20.668;2023-04-03T05:15:39;5.25;;;3.00;;
42988;SDS011;28622;43.716;20.668;2023-04-03T05:18:05;3.65;;;2.30;;
42988;SDS011;28622;43.716;20.668;2023-04-03T05:20:31;5.78;;;2.70;;
42988;SDS011;28622;43.716;20.668;2023-04-03T05:22:57;4.68;;;2.45;;
42988;SDS011;28622;43.716;20.668;2023-04-03T05:25:23;3.78;;;2.40;;
42988;SDS011;28622;43.716;20.668;2023-04-03T05:27:49;4.80;;;2.90;;
42988;SDS011;28622;43.716;20.668;2023-04-03T05:30:15;4.68;;;2.47;;
42988;SDS011;28622;43.716;20.668;2023-04-03T05:32:41;5.30;;;2.40;;
42988;SDS011;28622;43.716;20.668;2023-04-03T05:35:07;4.60;;;2.38;;
42988;SDS011;28622;43.716;20.668;2023-04-03T05:37:34;5.53;;;2.38;;
42988;SDS011;28622;43.716;20.668;2023-04-03T05:40:00;3.55;;;2.53;;
42988;SDS011;28622;43.716;20.668;2023-04-03T05:42:26;2.35;;;1.83;;
42988;SDS011;28622;43.716;20.668;2023-04-03T05:44:51;3.25;;;1.98;;
42988;SDS011;28622;43.716;20.668;2023-04-03T05:47:18;3.28;;;1.92;;
42988;SDS011;28622;43.716;20.668;2023-04-03T05:49:44;3.33;;;2.13;;
42988;SDS011;28622;43.716;20.668;2023-04-03T05:52:26;5.50;;;2.45;;
42988;SDS011;28622;43.716;20.668;2023-04-03T05:54:53;5.65;;;3.33;;
42988;SDS011;28622;43.716;20.668;2023-04-03T05:57:20;3.55;;;2.33;;
42988;SDS011;28622;43.716;20.668;2023-04-03T05:59:46;3.42;;;2.30;;
42988;SDS011;28622;43.716;20.668;2023-04-03T06:02:13;4.10;;;2.42;;
42988;SDS011;28622;43.716;20.668;2023-04-03T06:04:40;3.83;;;2.22;;
42988;SDS011;28622;43.716;20.668;2023-04-03T06:07:07;5.50;;;2.88;;
42988;SDS011;28622;43.716;20.668;2023-04-03T06:09:40;3.67;;;2.15;;
42988;SDS011;28622;43.716;20.668;2023-04-03T06:12:07;14.07;;;4.95;;
42988;SDS011;28622;43.716;20.668;2023-04-03T06:14:33;6.78;;;4.65;;
42988;SDS011;28622;43.716;20.668;2023-04-03T06:16:59;5.88;;;4.15;;
42988;SDS011;28622;43.716;20.668;2023-04-03T06:19:26;3.28;;;1.98;;
42988;SDS011;28622;43.716;20.668;2023-04-03T06:21:52;3.50;;;2.33;;
42988;SDS011;28622;43.716;20.668;2023-04-03T06:24:18;3.95;;;2.85;;
42988;SDS011;28622;43.716;20.668;2023-04-03T06:26:46;2.58;;;1.60;;
42988;SDS011;28622;43.716;20.668;2023-04-03T06:29:12;2.58;;;1.40;;
42988;SDS011;28622;43.716;20.668;2023-04-03T06:31:38;4.32;;;1.83;;
42988;SDS011;28622;43.716;20.668;2023-04-03T06:34:04;1.92;;;1.48;;
42988;SDS011;28622;43.716;20.668;2023-04-03T06:36:32;1.90;;;1.40;;
42988;SDS011;28622;43.716;20.668;2023-04-03T06:38:59;1.08;;;0.95;;
42988;SDS011;28622;43.716;20.668;2023-04-03T06:41:25;1.73;;;1.02;;
42988;SDS011;28622;43.716;20.668;2023-04-03T06:43:51;1.85;;;1.17;;
42988;SDS011;28622;43.716;20.668;2023-04-03T06:46:18;2.28;;;1.45;;
42988;SDS011;28622;43.716;20.668;2023-04-03T06:48:46;2.35;;;1.65;;
42988;SDS011;28622;43.716;20.668;2023-04-03T06:51:25;4.72;;;2.58;;
42988;SDS011;28622;43.716;20.668;2023-04-03T06:53:54;2.83;;;1.30;;
42988;SDS011;28622;43.716;20.668;2023-04-03T06:56:21;1.92;;;1.27;;
42988;SDS011;28622;43.716;20.668;2023-04-03T06:58:48;2.10;;;1.60;;
42988;SDS011;28622;43.716;20.668;2023-04-03T07:01:15;2.72;;;1.65;;
42988;SDS011;28622;43.716;20.668;2023-04-03T07:03:41;2.08;;;1.10;;
42988;SDS011;28622;43.716;20.668;2023-04-03T07:06:09;3.35;;;1.67;;
42988;SDS011;28622;43.716;20.668;2023-04-03T07:08:36;4.15;;;2.25;;
42988;SDS011;28622;43.716;20.668;2023-04-03T07:11:03;2.20;;;1.48;;
42988;SDS011;28622;43.716;20.668;2023-04-03T07:13:29;3.25;;;2.33;;
42988;SDS011;28622;43.716;20.668;2023-04-03T07:15:55;5.75;;;3.00;;
42988;SDS011;28622;43.716;20.668;2023-04-03T07:18:21;16.27;;;7.30;;
42988;SDS011;28622;43.716;20.668;2023-04-03T07:20:48;12.05;;;5.78;;
42988;SDS011;28622;43.716;20.668;2023-04-03T07:23:14;14.82;;;5.75;;
42988;SDS011;28622;43.716;20.668;2023-04-03T07:25:44;10.23;;;4.18;;
42988;SDS011;28622;43.716;20.668;2023-04-03T07:28:11;9.93;;;5.65;;
42988;SDS011;28622;43.716;20.668;2023-04-03T07:30:51;5.03;;;3.15;;
42988;SDS011;28622;43.716;20.668;2023-04-03T07:33:19;7.25;;;2.85;;
42988;SDS011;28622;43.716;20.668;2023-04-03T07:35:46;4.32;;;2.40;;
42988;SDS011;28622;43.716;20.668;2023-04-03T07:38:12;5.38;;;2.88;;
42988;SDS011;28622;43.716;20.668;2023-04-03T07:40:38;4.03;;;2.80;;
42988;SDS011;28622;43.716;20.668;2023-04-03T07:43:05;3.17;;;2.05;;
42988;SDS011;28622;43.716;20.668;2023-04-03T07:45:31;3.53;;;2.17;;
42988;SDS011;28622;43.716;20.668;2023-04-03T07:47:59;4.95;;;1.83;;
42988;SDS011;28622;43.716;20.668;2023-04-03T07:50:25;5.32;;;2.22;;
42988;SDS011;28622;43.716;20.668;2023-04-03T07:52:52;3.33;;;1.67;;
42988;SDS011;28622;43.716;20.668;2023-04-03T07:55:19;2.97;;;1.80;;
42988;SDS011;28622;43.716;20.668;2023-04-03T07:57:45;6.32;;;1.95;;
42988;SDS011;28622;43.716;20.668;2023-04-03T08:00:11;5.18;;;2.63;;
42988;SDS011;28622;43.716;20.668;2023-04-03T08:02:37;5.47;;;2.42;;
42988;SDS011;28622;43.716;20.668;2023-04-03T08:05:03;2.63;;;1.55;;
42988;SDS011;28622;43.716;20.668;2023-04-03T08:07:29;2.58;;;1.80;;
42988;SDS011;28622;43.716;20.668;2023-04-03T08:09:55;3.40;;;2.20;;
42988;SDS011;28622;43.716;20.668;2023-04-03T08:12:22;5.00;;;2.20;;
42988;SDS011;28622;43.716;20.668;2023-04-03T08:14:47;2.92;;;1.30;;
42988;SDS011;28622;43.716;20.668;2023-04-03T08:17:13;3.40;;;1.23;;
42988;SDS011;28622;43.716;20.668;2023-04-03T08:19:39;2.50;;;1.60;;
42988;SDS011;28622;43.716;20.668;2023-04-03T08:22:05;3.17;;;2.00;;
42988;SDS011;28622;43.716;20.668;2023-04-03T08:24:32;4.07;;;2.10;;
42988;SDS011;28622;43.716;20.668;2023-04-03T08:26:58;3.83;;;2.38;;
42988;SDS011;28622;43.716;20.668;2023-04-03T08:29:24;2.40;;;1.60;;
42988;SDS011;28622;43.716;20.668;2023-04-03T08:31:50;6.35;;;2.78;;
42988;SDS011;28622;43.716;20.668;2023-04-03T08:34:16;3.95;;;2.17;;
42988;SDS011;28622;43.716;20.668;2023-04-03T08:36:42;3.20;;;1.80;;
42988;SDS011;28622;43.716;20.668;2023-04-03T08:39:08;3.80;;;2.42;;
42988;SDS011;28622;43.716;20.668;2023-04-03T08:41:35;5.68;;;1.98;;
42988;SDS011;28622;43.716;20.668;2023-04-03T08:49:43;3.50;;;1.50;;
42988;SDS011;28622;43.716;20.668;2023-04-03T08:57:53;3.65;;;1.80;;
42988;SDS011;28622;43.716;20.668;2023-04-03T09:00:28;2.08;;;1.75;;
42988;SDS011;28622;43.716;20.668;2023-04-03T09:02:58;4.35;;;1.70;;
42988;SDS011;28622;43.716;20.668;2023-04-03T09:16:25;2.70;;;1.55;;
42988;SDS011;28622;43.716;20.668;2023-04-03T09:22:07;3.33;;;1.75;;
42988;SDS011;28622;43.716;20.668;2023-04-03T09:24:43;3.30;;;2.05;;
42988;SDS011;28622;43.716;20.668;2023-04-03T09:27:12;3.00;;;1.95;;
42988;SDS011;28622;43.716;20.668;2023-04-03T09:29:39;3.45;;;1.90;;
42988;SDS011;28622;43.716;20.668;2023-04-03T09:32:18;2.47;;;1.42;;
42988;SDS011;28622;43.716;20.668;2023-04-03T09:34:50;2.50;;;1.25;;
42988;SDS011;28622;43.716;20.668;2023-04-03T09:40:28;2.70;;;1.25;;
42988;SDS011;28622;43.716;20.668;2023-04-03T09:43:02;4.57;;;1.40;;
42988;SDS011;28622;43.716;20.668;2023-04-03T09:45:48;3.05;;;1.98;;
42988;SDS011;28622;43.716;20.668;2023-04-03T09:48:17;3.88;;;1.85;;
42988;SDS011;28622;43.716;20.668;2023-04-03T09:55:58;2.67;;;1.55;;
42988;SDS011;28622;43.716;20.668;2023-04-03T09:58:48;2.13;;;1.40;;
42988;SDS011;28622;43.716;20.668;2023-04-03T10:01:30;1.92;;;1.30;;
42988;SDS011;28622;43.716;20.668;2023-04-03T10:04:05;3.33;;;1.67;;
42988;SDS011;28622;43.716;20.668;2023-04-03T10:06:36;1.77;;;1.20;;
42988;SDS011;28622;43.716;20.668;2023-04-03T10:09:27;3.15;;;2.15;;
42988;SDS011;28622;43.716;20.668;2023-04-03T10:12:12;8.93;;;3.38;;
42988;SDS011;28622;43.716;20.668;2023-04-03T10:14:40;7.75;;;3.22;;
42988;SDS011;28622;43.716;20.668;2023-04-03T10:19:58;3.33;;;1.63;;
42988;SDS011;28622;43.716;20.668;2023-04-03T10:28:05;4.88;;;2.08;;
42988;SDS011;28622;43.716;20.668;2023-04-03T10:31:04;5.55;;;2.45;;
42988;SDS011;28622;43.716;20.668;2023-04-03T10:33:53;2.67;;;1.38;;
42988;SDS011;28622;43.716;20.668;2023-04-03T10:36:36;4.65;;;1.77;;
42988;SDS011;28622;43.716;20.668;2023-04-03T10:43:25;2.55;;;1.50;;
42988;SDS011;28622;43.716;20.668;2023-04-03T10:47:55;4.22;;;2.72;;
42988;SDS011;28622;43.716;20.668;2023-04-03T10:53:52;2.17;;;1.40;;
42988;SDS011;28622;43.716;20.668;2023-04-03T11:01:55;3.35;;;1.65;;
42988;SDS011;28622;43.716;20.668;2023-04-03T11:04:26;2.28;;;1.38;;
42988;SDS011;28622;43.716;20.668;2023-04-03T11:07:28;2.70;;;1.60;;
42988;SDS011;28622;43.716;20.668;2023-04-03T11:10:14;3.75;;;1.98;;
42988;SDS011;28622;43.716;20.668;2023-04-03T11:12:51;2.05;;;1.40;;
42988;SDS011;28622;43.716;20.668;2023-04-03T11:15:23;6.45;;;2.42;;
42988;SDS011;28622;43.716;20.668;2023-04-03T11:20:36;4.95;;;2.72;;
42988;SDS011;28622;43.716;20.668;2023-04-03T11:23:17;7.78;;;2.58;;
42988;SDS011;28622;43.716;20.668;2023-04-03T11:25:54;7.35;;;2.67;;
42988;SDS011;28622;43.716;20.668;2023-04-03T11:28:24;5.95;;;2.55;;
42988;SDS011;28622;43.716;20.668;2023-04-03T11:39:24;8.52;;;4.13;;
42988;SDS011;28622;43.716;20.668;2023-04-03T11:42:22;5.85;;;3.47;;
42988;SDS011;28622;43.716;20.668;2023-04-03T11:44:51;5.63;;;2.80;;
42988;SDS011;28622;43.716;20.668;2023-04-03T11:47:51;4.82;;;2.53;;
42988;SDS011;28622;43.716;20.668;2023-04-03T12:08:27;4.47;;;2.75;;
42988;SDS011;28622;43.716;20.668;2023-04-03T12:19:03;5.25;;;2.42;;
42988;SDS011;28622;43.716;20.668;2023-04-03T12:29:38;5.25;;;2.40;;
42988;SDS011;28622;43.716;20.668;2023-04-03T12:46:15;8.07;;;5.82;;
42988;SDS011;28622;43.716;20.668;2023-04-03T12:51:09;9.48;;;4.85;;
42988;SDS011;28622;43.716;20.668;2023-04-03T12:53:44;9.10;;;2.88;;
42988;SDS011;28622;43.716;20.668;2023-04-03T12:56:27;6.63;;;3.03;;
42988;SDS011;28622;43.716;20.668;2023-04-03T13:01:53;6.55;;;3.65;;
42988;SDS011;28622;43.716;20.668;2023-04-03T13:04:20;7.85;;;3.92;;
42988;SDS011;28622;43.716;20.668;2023-04-03T13:06:46;10.23;;;4.60;;
42988;SDS011;28622;43.716;20.668;2023-04-03T13:09:19;11.52;;;5.25;;
42988;SDS011;28622;43.716;20.668;2023-04-03T13:11:52;8.98;;;4.65;;
42988;SDS011;28622;43.716;20.668;2023-04-03T13:14:25;11.85;;;6.13;;
42988;SDS011;28622;43.716;20.668;2023-04-03T13:19:39;9.98;;;5.38;;
42988;SDS011;28622;43.716;20.668;2023-04-03T13:25:04;12.80;;;4.72;;
42988;SDS011;28622;43.716;20.668;2023-04-03T13:27:32;13.63;;;6.78;;
42988;SDS011;28622;43.716;20.668;2023-04-03T13:30:00;8.48;;;4.53;;
42988;SDS011;28622;43.716;20.668;2023-04-03T13:32:28;12.95;;;5.18;;
42988;SDS011;28622;43.716;20.668;2023-04-03T13:34:56;14.13;;;7.32;;
42988;SDS011;28622;43.716;20.668;2023-04-03T13:37:31;16.85;;;7.80;;
42988;SDS011;28622;43.716;20.668;2023-04-03T13:42:35;13.43;;;6.97;;
42988;SDS011;28622;43.716;20.668;2023-04-03T13:45:17;16.83;;;6.22;;
42988;SDS011;28622;43.716;20.668;2023-04-03T13:47:49;17.90;;;8.07;;
42988;SDS011;28622;43.716;20.668;2023-04-03T13:50:26;12.90;;;7.47;;
42988;SDS011;28622;43.716;20.668;2023-04-03T13:53:00;18.08;;;7.90;;
42988;SDS011;28622;43.716;20.668;2023-04-03T13:55:32;11.75;;;6.15;;
42988;SDS011;28622;43.716;20.668;2023-04-03T13:58:01;12.93;;;6.85;;
42988;SDS011;28622;43.716;20.668;2023-04-03T14:00:48;11.63;;;5.40;;
42988;SDS011;28622;43.716;20.668;2023-04-03T14:05:54;8.07;;;3.80;;
42988;SDS011;28622;43.716;20.668;2023-04-03T14:08:20;6.78;;;3.22;;
42988;SDS011;28622;43.716;20.668;2023-04-03T14:10:46;6.97;;;3.72;;
42988;SDS011;28622;43.716;20.668;2023-04-03T14:13:15;7.60;;;4.70;;
42988;SDS011;28622;43.716;20.668;2023-04-03T14:15:43;8.85;;;5.07;;
42988;SDS011;28622;43.716;20.668;2023-04-03T14:18:13;8.45;;;4.90;;
42988;SDS011;28622;43.716;20.668;2023-04-03T14:20:41;6.18;;;3.53;;
42988;SDS011;28622;43.716;20.668;2023-04-03T14:23:07;11.60;;;5.68;;
42988;SDS011;28622;43.716;20.668;2023-04-03T14:25:32;10.32;;;3.80;;
42988;SDS011;28622;43.716;20.668;2023-04-03T14:27:59;9.00;;;4.18;;
42988;SDS011;28622;43.716;20.668;2023-04-03T14:30:34;7.20;;;4.07;;
42988;SDS011;28622;43.716;20.668;2023-04-03T14:33:01;5.55;;;3.10;;
42988;SDS011;28622;43.716;20.668;2023-04-03T14:35:28;9.65;;;4.65;;
42988;SDS011;28622;43.716;20.668;2023-04-03T14:37:54;9.27;;;5.22;;
42988;SDS011;28622;43.716;20.668;2023-04-03T14:40:23;10.20;;;5.18;;
42988;SDS011;28622;43.716;20.668;2023-04-03T14:42:51;10.93;;;4.40;;
42988;SDS011;28622;43.716;20.668;2023-04-03T14:45:20;12.65;;;5.57;;
42988;SDS011;28622;43.716;20.668;2023-04-03T14:47:48;10.25;;;4.40;;
42988;SDS011;28622;43.716;20.668;2023-04-03T14:50:21;7.97;;;4.25;;
42988;SDS011;28622;43.716;20.668;2023-04-03T14:52:50;9.70;;;5.32;;
42988;SDS011;28622;43.716;20.668;2023-04-03T14:55:18;8.50;;;5.25;;
42988;SDS011;28622;43.716;20.668;2023-04-03T14:57:45;9.25;;;5.57;;
42988;SDS011;28622;43.716;20.668;2023-04-03T15:00:12;8.85;;;5.70;;
42988;SDS011;28622;43.716;20.668;2023-04-03T15:02:40;11.88;;;6.30;;
42988;SDS011;28622;43.716;20.668;2023-04-03T15:05:07;11.15;;;6.65;;
42988;SDS011;28622;43.716;20.668;2023-04-03T15:07:36;12.18;;;5.90;;
42988;SDS011;28622;43.716;20.668;2023-04-03T15:10:18;10.52;;;5.68;;
42988;SDS011;28622;43.716;20.668;2023-04-03T15:12:51;9.13;;;5.00;;
42988;SDS011;28622;43.716;20.668;2023-04-03T15:15:18;7.60;;;4.50;;
42988;SDS011;28622;43.716;20.668;2023-04-03T15:17:46;13.48;;;7.10;;
42988;SDS011;28622;43.716;20.668;2023-04-03T15:20:16;12.80;;;6.63;;
42988;SDS011;28622;43.716;20.668;2023-04-03T15:22:44;12.25;;;6.15;;
42988;SDS011;28622;43.716;20.668;2023-04-03T15:25:10;10.40;;;5.50;;
42988;SDS011;28622;43.716;20.668;2023-04-03T15:27:37;9.23;;;5.00;;
42988;SDS011;28622;43.716;20.668;2023-04-03T15:30:04;7.28;;;4.93;;
42988;SDS011;28622;43.716;20.668;2023-04-03T15:32:32;11.05;;;5.38;;
42988;SDS011;28622;43.716;20.668;2023-04-03T15:34:59;9.18;;;5.40;;
42988;SDS011;28622;43.716;20.668;2023-04-03T15:37:25;9.85;;;5.80;;
42988;SDS011;28622;43.716;20.668;2023-04-03T15:39:50;9.32;;;5.85;;
42988;SDS011;28622;43.716;20.668;2023-04-03T15:42:16;10.85;;;6.50;;
42988;SDS011;28622;43.716;20.668;2023-04-03T15:44:42;6.93;;;5.13;;
42988;SDS011;28622;43.716;20.668;2023-04-03T15:47:08;8.18;;;4.95;;
42988;SDS011;28622;43.716;20.668;2023-04-03T15:49:34;5.72;;;4.43;;
42988;SDS011;28622;43.716;20.668;2023-04-03T15:52:00;7.55;;;4.30;;
42988;SDS011;28622;43.716;20.668;2023-04-03T15:54:26;7.78;;;4.55;;
42988;SDS011;28622;43.716;20.668;2023-04-03T15:56:54;11.00;;;5.57;;
42988;SDS011;28622;43.716;20.668;2023-04-03T15:59:21;11.63;;;5.85;;
42988;SDS011;28622;43.716;20.668;2023-04-03T16:01:47;11.48;;;5.97;;
42988;SDS011;28622;43.716;20.668;2023-04-03T16:04:13;10.50;;;5.53;;
42988;SDS011;28622;43.716;20.668;2023-04-03T16:06:40;15.27;;;5.45;;
42988;SDS011;28622;43.716;20.668;2023-04-03T16:09:06;7.22;;;3.88;;
42988;SDS011;28622;43.716;20.668;2023-04-03T16:11:33;6.82;;;4.32;;
42988;SDS011;28622;43.716;20.668;2023-04-03T16:14:00;10.57;;;5.80;;
42988;SDS011;28622;43.716;20.668;2023-04-03T16:16:26;8.63;;;5.07;;
42988;SDS011;28622;43.716;20.668;2023-04-03T16:18:53;8.48;;;5.13;;
42988;SDS011;28622;43.716;20.668;2023-04-03T16:21:20;8.73;;;4.70;;
42988;SDS011;28622;43.716;20.668;2023-04-03T16:23:47;6.75;;;4.78;;
42988;SDS011;28622;43.716;20.668;2023-04-03T16:26:13;6.25;;;3.97;;
42988;SDS011;28622;43.716;20.668;2023-04-03T16:28:39;9.32;;;4.47;;
42988;SDS011;28622;43.716;20.668;2023-04-03T16:31:06;7.53;;;4.72;;
42988;SDS011;28622;43.716;20.668;2023-04-03T16:33:33;8.55;;;4.60;;
42988;SDS011;28622;43.716;20.668;2023-04-03T16:35:59;6.55;;;4.25;;
42988;SDS011;28622;43.716;20.668;2023-04-03T16:38:25;10.38;;;5.15;;
42988;SDS011;28622;43.716;20.668;2023-04-03T16:40:51;12.82;;;5.40;;
42988;SDS011;28622;43.716;20.668;2023-04-03T16:43:21;11.35;;;6.22;;
42988;SDS011;28622;43.716;20.668;2023-04-03T16:45:47;10.60;;;6.15;;
42988;SDS011;28622;43.716;20.668;2023-04-03T16:48:13;9.65;;;6.20;;
42988;SDS011;28622;43.716;20.668;2023-04-03T16:50:39;11.63;;;7.22;;
42988;SDS011;28622;43.716;20.668;2023-04-03T16:53:04;16.42;;;8.35;;
42988;SDS011;28622;43.716;20.668;2023-04-03T16:55:33;16.73;;;7.43;;
42988;SDS011;28622;43.716;20.668;2023-04-03T16:57:59;10.85;;;6.35;;
42988;SDS011;28622;43.716;20.668;2023-04-03T17:00:25;13.02;;;6.85;;
42988;SDS011;28622;43.716;20.668;2023-04-03T17:02:51;15.85;;;8.43;;